Time;durP1;ratioP1;P1;durP2;ratioP2;P2;SDS_P1;SDS_P2;PMS_P1;PMS_P2;Temp;Humidity;BMP_temperature;BMP_pressure;BME280_temperature;BME280_humidity;BME280_pressure;Samples;Min_cycle;Max_cycle;Signal;HPM_P1;HPM_P2
2021/05/08 00:01:33;;;;;;;6.15;5.55;;;7.50;80.20;;;;;;5013166;28;20176;-61
2021/05/08 00:03:58;;;;;;;7.75;6.88;;;7.50;81.00;;;;;;5011566;28;20497;-58
2021/05/08 00:06:24;;;;;;;6.90;6.20;;;7.50;81.00;;;;;;5039410;28;20037;-61
2021/05/08 00:08:50;;;;;;;7.97;6.38;;;7.40;81.20;;;;;;5012667;28;20038;-58
2021/05/08 00:11:15;;;;;;;6.97;6.28;;;7.40;81.00;;;;;;5014324;28;20041;-56
2021/05/08 00:13:41;;;;;;;7.03;6.32;;;7.50;81.10;;;;;;5025696;28;20101;-55
2021/05/08 00:16:06;;;;;;;9.27;6.82;;;7.50;81.90;;;;;;5048400;28;20080;-61
2021/05/08 00:18:32;;;;;;;8.68;6.43;;;7.60;81.40;;;;;;5026242;28;20118;-56
2021/05/08 00:20:58;;;;;;;10.57;7.05;;;7.60;80.80;;;;;;5039032;28;20059;-58
2021/05/08 00:23:24;;;;;;;8.73;6.28;;;7.60;80.30;;;;;;5030867;28;20029;-59
2021/05/08 00:25:49;;;;;;;9.32;6.43;;;7.50;79.90;;;;;;5028002;28;20029;-58
2021/05/08 00:28:15;;;;;;;7.40;6.68;;;7.40;80.20;;;;;;5025494;28;20112;-59
2021/05/08 00:30:41;;;;;;;9.77;6.93;;;7.10;81.00;;;;;;5026556;28;20022;-62
2021/05/08 00:33:06;;;;;;;9.80;7.05;;;6.90;81.80;;;;;;5033100;28;20025;-58
2021/05/08 00:35:32;;;;;;;10.50;6.55;;;7.00;81.60;;;;;;5037939;28;20033;-56
2021/05/08 00:37:58;;;;;;;7.35;6.55;;;7.10;81.30;;;;;;5025536;28;20041;-59
2021/05/08 00:40:23;;;;;;;7.43;6.65;;;7.20;81.10;;;;;;5019600;28;20128;-60
2021/05/08 00:42:49;;;;;;;8.18;6.38;;;7.20;81.30;;;;;;5030086;28;20057;-58
2021/05/08 00:45:15;;;;;;;9.60;7.05;;;7.10;81.50;;;;;;5016360;28;20045;-58
2021/05/08 00:47:45;;;;;;;6.78;6.05;;;7.00;81.50;;;;;;5034542;28;20034;-59
2021/05/08 00:50:11;;;;;;;8.65;6.32;;;6.90;81.80;;;;;;5032083;28;20041;-57
2021/05/08 00:52:38;;;;;;;7.70;6.90;;;6.90;81.70;;;;;;5026821;28;20049;-58
2021/05/08 00:55:06;;;;;;;9.90;7.55;;;7.00;81.50;;;;;;5015687;28;20029;-60
2021/05/08 00:57:31;;;;;;;9.35;6.22;;;6.90;81.90;;;;;;5039077;28;20160;-60
2021/05/08 00:59:57;;;;;;;7.05;6.28;;;6.90;81.80;;;;;;5014853;28;20057;-60
2021/05/08 01:02:22;;;;;;;6.82;6.13;;;7.00;82.00;;;;;;5031745;28;20081;-59
2021/05/08 01:04:48;;;;;;;7.10;6.35;;;7.10;82.20;;;;;;5029706;28;20033;-60
2021/05/08 01:07:14;;;;;;;7.40;6.70;;;7.10;81.90;;;;;;5018145;28;20038;-58
2021/05/08 01:09:41;;;;;;;7.05;5.78;;;7.10;82.20;;;;;;5021507;28;20026;-57
2021/05/08 01:12:07;;;;;;;6.85;6.15;;;7.00;81.80;;;;;;5015284;28;20464;-60
2021/05/08 01:14:32;;;;;;;8.27;6.18;;;7.00;82.30;;;;;;5036563;28;20051;-58
2021/05/08 01:16:58;;;;;;;7.90;6.68;;;7.00;81.90;;;;;;5022011;28;20022;-60
2021/05/08 01:19:28;;;;;;;8.35;7.38;;;7.10;82.60;;;;;;5028510;28;20497;-62
2021/05/08 01:21:54;;;;;;;8.07;6.90;;;7.10;83.50;;;;;;5015002;28;20371;-60
2021/05/08 01:24:20;;;;;;;7.75;6.50;;;7.00;83.00;;;;;;5033356;28;20156;-61
2021/05/08 01:26:45;;;;;;;8.88;7.18;;;7.00;82.40;;;;;;5028586;28;20124;-60
2021/05/08 01:29:11;;;;;;;8.25;6.85;;;7.00;81.60;;;;;;5029028;28;20033;-59
2021/05/08 01:31:37;;;;;;;8.98;6.97;;;7.10;81.10;;;;;;5031190;28;20133;-58
2021/05/08 01:34:03;;;;;;;7.78;6.85;;;6.90;81.10;;;;;;5030339;28;20036;-59
2021/05/08 01:36:32;;;;;;;8.00;6.10;;;6.80;81.00;;;;;;5018377;28;20444;-60
2021/05/08 01:38:58;;;;;;;9.98;6.30;;;6.60;81.70;;;;;;5024682;28;20025;-60
2021/05/08 01:41:24;;;;;;;7.28;6.57;;;6.60;80.50;;;;;;5017153;28;20068;-60
2021/05/08 01:43:50;;;;;;;6.80;5.97;;;6.40;81.20;;;;;;5034065;28;20643;-60
2021/05/08 01:46:15;;;;;;;7.50;6.70;;;6.40;81.40;;;;;;5020003;28;20041;-60
2021/05/08 01:48:41;;;;;;;10.15;6.80;;;6.40;81.00;;;;;;5014029;28;20041;-60
2021/05/08 01:51:06;;;;;;;9.40;6.80;;;6.00;82.50;;;;;;5052723;28;20080;-55
2021/05/08 01:53:32;;;;;;;10.23;7.18;;;6.00;82.80;;;;;;5045987;28;20034;-58
2021/05/08 01:55:58;;;;;;;7.47;6.38;;;6.20;81.90;;;;;;5027287;28;20096;-60
2021/05/08 01:58:23;;;;;;;7.57;5.97;;;6.40;81.10;;;;;;5013525;28;20124;-57
2021/05/08 02:00:49;;;;;;;7.47;6.43;;;6.50;81.20;;;;;;5022123;28;20033;-60
2021/05/08 02:03:16;;;;;;;8.55;7.20;;;6.60;80.80;;;;;;5045465;28;20395;-60
2021/05/08 02:05:43;;;;;;;7.90;6.55;;;6.50;80.80;;;;;;5028895;28;20072;-60
2021/05/08 02:08:10;;;;;;;7.88;6.60;;;6.50;80.60;;;;;;5013187;28;20026;-59
2021/05/08 02:10:37;;;;;;;6.85;6.15;;;6.30;81.20;;;;;;5029181;28;20030;-59
2021/05/08 02:13:05;;;;;;;7.97;6.63;;;6.50;81.10;;;;;;5013619;28;20041;-61
2021/05/08 02:15:31;;;;;;;8.27;6.47;;;6.50;80.70;;;;;;5022265;28;20133;-56
2021/05/08 02:17:56;;;;;;;6.95;6.25;;;6.60;80.30;;;;;;5013511;28;20569;-58
2021/05/08 02:20:30;;;;;;;7.28;6.57;;;6.60;80.50;;;;;;5022791;28;20139;-60
2021/05/08 02:23:01;;;;;;;7.33;6.60;;;6.80;81.00;;;;;;5017939;28;20037;-58
2021/05/08 02:25:27;;;;;;;7.70;6.50;;;6.70;81.00;;;;;;5032379;28;20284;-58
2021/05/08 02:27:53;;;;;;;8.07;6.30;;;6.70;79.90;;;;;;5028112;28;20183;-58
2021/05/08 02:30:25;;;;;;;7.68;6.97;;;6.60;80.20;;;;;;5022753;28;20528;-56
2021/05/08 02:32:50;;;;;;;7.85;6.30;;;6.10;81.60;;;;;;5033054;28;20074;-59
2021/05/08 02:35:18;;;;;;;7.22;6.53;;;6.10;81.70;;;;;;5040165;28;20122;-56
2021/05/08 02:37:43;;;;;;;8.48;6.65;;;6.20;81.60;;;;;;5024405;28;20057;-59
2021/05/08 02:40:12;;;;;;;9.15;6.85;;;6.30;81.70;;;;;;5027689;28;20496;-58
2021/05/08 02:42:38;;;;;;;7.65;6.30;;;6.30;81.70;;;;;;5026813;28;20468;-57
2021/05/08 02:45:05;;;;;;;7.13;6.43;;;6.40;81.80;;;;;;5018424;28;20041;-60
2021/05/08 02:47:31;;;;;;;9.18;7.45;;;6.50;81.40;;;;;;5032596;28;20029;-60
2021/05/08 02:49:56;;;;;;;7.63;6.50;;;6.70;80.80;;;;;;5019887;28;20051;-60
2021/05/08 02:52:22;;;;;;;7.43;6.72;;;6.80;80.40;;;;;;5022749;28;20046;-61
2021/05/08 02:54:48;;;;;;;7.72;7.00;;;6.90;79.90;;;;;;5012276;28;20041;-57
2021/05/08 02:57:14;;;;;;;8.65;6.80;;;6.90;80.00;;;;;;5012934;28;20037;-60
2021/05/08 02:59:40;;;;;;;9.77;6.68;;;6.80;80.10;;;;;;5012344;28;20112;-56
2021/05/08 03:02:06;;;;;;;7.28;6.50;;;6.70;80.80;;;;;;5027373;28;20060;-56
2021/05/08 03:04:32;;;;;;;9.43;7.03;;;6.60;81.10;;;;;;5012441;28;20038;-57
2021/05/08 03:06:58;;;;;;;8.32;7.10;;;6.60;81.50;;;;;;5044606;28;20029;-59
2021/05/08 03:09:24;;;;;;;8.85;7.07;;;6.60;81.50;;;;;;5022376;28;20034;-57
2021/05/08 03:11:50;;;;;;;9.38;6.70;;;6.50;82.20;;;;;;5027460;28;20033;-57
2021/05/08 03:14:16;;;;;;;8.65;7.15;;;6.40;82.20;;;;;;5030887;28;20034;-56
2021/05/08 03:16:43;;;;;;;8.38;7.50;;;6.30;82.20;;;;;;5032275;28;20378;-56
2021/05/08 03:19:09;;;;;;;7.82;7.05;;;6.30;82.70;;;;;;5017925;28;20389;-59
2021/05/08 03:21:35;;;;;;;7.93;7.13;;;6.50;82.40;;;;;;5020567;28;20037;-58
2021/05/08 03:24:03;;;;;;;8.38;7.45;;;6.40;82.70;;;;;;5025800;28;20041;-58
2021/05/08 03:26:29;;;;;;;8.55;7.63;;;6.20;83.20;;;;;;5031597;28;20085;-60
2021/05/08 03:28:54;;;;;;;9.02;7.75;;;6.00;83.80;;;;;;5019166;28;20549;-61
2021/05/08 03:31:21;;;;;;;7.82;7.07;;;5.90;84.30;;;;;;5053024;28;20045;-58
2021/05/08 03:33:46;;;;;;;9.27;7.63;;;6.00;84.40;;;;;;5024068;28;20105;-58
2021/05/08 03:36:12;;;;;;;8.07;6.95;;;6.20;84.00;;;;;;5034958;28;20203;-60
2021/05/08 03:38:38;;;;;;;8.32;7.22;;;6.20;83.40;;;;;;5023758;28;20025;-58
2021/05/08 03:41:04;;;;;;;8.80;7.60;;;6.40;83.00;;;;;;5025611;28;20037;-60
2021/05/08 03:43:30;;;;;;;9.30;7.40;;;6.40;82.80;;;;;;5012500;28;20398;-60
2021/05/08 03:45:57;;;;;;;8.70;7.47;;;6.60;82.60;;;;;;5053952;28;20029;-59
2021/05/08 03:48:22;;;;;;;8.00;7.20;;;6.60;82.50;;;;;;5013670;28;20083;-60
2021/05/08 03:50:48;;;;;;;9.43;7.07;;;6.70;82.70;;;;;;5019251;28;20033;-57
2021/05/08 03:53:14;;;;;;;7.72;6.75;;;6.70;82.80;;;;;;5019502;28;20478;-59
2021/05/08 03:55:40;;;;;;;8.38;7.32;;;6.70;82.80;;;;;;5016194;28;20030;-60
2021/05/08 03:58:06;;;;;;;8.98;7.20;;;6.70;83.00;;;;;;5022854;28;20038;-62
2021/05/08 04:00:32;;;;;;;8.88;7.70;;;6.80;82.90;;;;;;5013406;28;20049;-58
2021/05/08 04:02:57;;;;;;;19.20;17.15;;;6.80;82.50;;;;;;5023573;28;20038;-53
2021/05/08 04:05:23;;;;;;;12.45;10.07;;;6.80;82.70;;;;;;5021991;28;20037;-60
2021/05/08 04:07:48;;;;;;;9.55;8.10;;;6.90;82.40;;;;;;5035731;28;20124;-57
2021/05/08 04:10:15;;;;;;;8.50;7.70;;;6.90;82.20;;;;;;5015643;28;20026;-58
2021/05/08 04:12:40;;;;;;;12.20;7.75;;;6.90;82.10;;;;;;5040114;28;20042;-60
2021/05/08 04:15:06;;;;;;;8.55;7.75;;;6.90;82.10;;;;;;5021321;28;20065;-59
2021/05/08 04:17:32;;;;;;;10.68;7.25;;;6.90;81.50;;;;;;5033818;28;20117;-61
2021/05/08 04:19:58;;;;;;;9.45;8.55;;;7.00;80.90;;;;;;5015509;28;20045;-57
2021/05/08 04:22:23;;;;;;;12.18;10.25;;;6.90;80.60;;;;;;5047468;28;20045;-56
2021/05/08 04:24:49;;;;;;;10.27;8.70;;;7.00;80.50;;;;;;5035350;28;20033;-58
2021/05/08 04:27:14;;;;;;;8.30;7.45;;;6.90;81.10;;;;;;5040796;28;20459;-62
2021/05/08 04:29:40;;;;;;;27.17;18.80;;;6.80;81.00;;;;;;5018456;28;20049;-57
2021/05/08 04:32:05;;;;;;;16.65;13.27;;;6.90;81.00;;;;;;5035243;28;20025;-56
2021/05/08 04:34:31;;;;;;;11.50;9.77;;;7.00;80.60;;;;;;5021221;28;20026;-56
2021/05/08 04:36:56;;;;;;;12.45;9.68;;;7.00;80.30;;;;;;5041664;28;20040;-60
2021/05/08 04:39:23;;;;;;;8.57;7.72;;;7.00;80.30;;;;;;5026494;28;20120;-56
2021/05/08 04:41:49;;;;;;;7.93;7.13;;;6.90;79.90;;;;;;5016030;28;20026;-58
2021/05/08 04:44:15;;;;;;;10.05;7.78;;;6.80;80.70;;;;;;5015188;28;20045;-58
2021/05/08 04:46:41;;;;;;;9.73;7.88;;;6.90;80.30;;;;;;5016724;28;20091;-58
2021/05/08 04:49:06;;;;;;;8.10;7.30;;;6.90;80.20;;;;;;5014907;28;20038;-58
2021/05/08 04:51:32;;;;;;;8.48;7.28;;;6.80;80.50;;;;;;5017552;28;20039;-56
2021/05/08 04:53:57;;;;;;;8.60;7.70;;;6.80;80.20;;;;;;5023504;28;20087;-58
2021/05/08 04:56:23;;;;;;;8.30;7.50;;;6.70;81.10;;;;;;5022528;28;20485;-59
2021/05/08 04:58:49;;;;;;;8.48;7.50;;;6.60;81.70;;;;;;5020862;28;20029;-59
2021/05/08 05:01:15;;;;;;;8.35;7.47;;;6.60;81.60;;;;;;5023311;28;20403;-60
2021/05/08 05:03:40;;;;;;;7.85;7.13;;;6.50;82.10;;;;;;5015128;28;20065;-59
2021/05/08 05:06:06;;;;;;;9.07;7.50;;;6.40;82.20;;;;;;5014946;28;20107;-57
2021/05/08 05:08:32;;;;;;;7.63;6.82;;;6.40;82.20;;;;;;5016416;28;20037;-58
2021/05/08 05:10:58;;;;;;;8.50;7.63;;;6.40;82.50;;;;;;5014744;28;20058;-58
2021/05/08 05:13:24;;;;;;;8.20;7.38;;;6.50;81.70;;;;;;5047031;28;20112;-61
2021/05/08 05:15:51;;;;;;;9.25;7.60;;;6.60;81.80;;;;;;5016623;28;20026;-58
2021/05/08 05:18:17;;;;;;;8.05;7.22;;;6.60;81.80;;;;;;5020897;28;20042;-57
2021/05/08 05:20:44;;;;;;;8.05;7.22;;;6.40;81.90;;;;;;5048016;28;20088;-57
2021/05/08 05:23:10;;;;;;;8.68;7.68;;;6.30;83.30;;;;;;5027527;28;20037;-59
2021/05/08 05:25:36;;;;;;;9.07;8.23;;;6.30;82.70;;;;;;5032104;28;20021;-59
2021/05/08 05:28:02;;;;;;;9.85;7.65;;;6.40;82.50;;;;;;5022306;28;20076;-57
2021/05/08 05:30:28;;;;;;;9.48;7.70;;;6.60;81.50;;;;;;5022127;28;20323;-60
2021/05/08 05:32:55;;;;;;;10.18;8.18;;;6.50;82.30;;;;;;5032089;28;20143;-58
2021/05/08 05:35:20;;;;;;;8.13;7.15;;;6.60;81.90;;;;;;5015588;28;20358;-60
2021/05/08 05:37:46;;;;;;;10.18;8.05;;;6.80;81.60;;;;;;5030040;28;20036;-59
2021/05/08 05:40:12;;;;;;;8.52;7.70;;;6.70;82.30;;;;;;5046798;28;20025;-60
2021/05/08 05:42:39;;;;;;;9.65;8.63;;;6.70;82.70;;;;;;5062267;28;20071;-57
2021/05/08 05:45:08;;;;;;;8.57;7.57;;;6.90;82.40;;;;;;5015711;28;20121;-62
2021/05/08 05:47:34;;;;;;;9.05;8.15;;;6.80;83.10;;;;;;5037749;28;20060;-57
2021/05/08 05:49:59;;;;;;;8.32;7.53;;;7.10;82.30;;;;;;5032093;28;20474;-59
2021/05/08 05:52:25;;;;;;;10.70;8.13;;;7.10;82.30;;;;;;5033596;28;20037;-56
2021/05/08 05:54:52;;;;;;;7.93;7.13;;;7.30;81.40;;;;;;5022965;28;20030;-61
2021/05/08 05:57:18;;;;;;;8.10;7.30;;;7.30;81.00;;;;;;5014994;28;20076;-58
2021/05/08 05:59:44;;;;;;;9.82;7.60;;;7.40;80.00;;;;;;5027512;28;20075;-58
2021/05/08 06:02:11;;;;;;;8.40;7.53;;;7.50;79.60;;;;;;5015897;28;20049;-59
2021/05/08 06:04:37;;;;;;;8.55;7.07;;;7.60;78.90;;;;;;5015151;28;20034;-60
2021/05/08 06:07:03;;;;;;;8.13;7.32;;;7.70;79.10;;;;;;5016958;28;20444;-62
2021/05/08 06:09:29;;;;;;;8.20;6.80;;;7.80;77.70;;;;;;5013681;28;20038;-61
2021/05/08 06:11:56;;;;;;;10.65;7.07;;;7.90;77.60;;;;;;5047722;28;20098;-57
2021/05/08 06:14:26;;;;;;;8.75;7.18;;;7.90;76.90;;;;;;5013900;28;20092;-60
2021/05/08 06:16:55;;;;;;;8.73;6.32;;;8.00;75.90;;;;;;5028001;28;20037;-59
2021/05/08 06:19:21;;;;;;;8.73;6.70;;;8.00;74.70;;;;;;5014004;28;20041;-57
2021/05/08 06:21:46;;;;;;;9.07;6.60;;;8.10;74.60;;;;;;5027036;28;20045;-61
2021/05/08 06:24:12;;;;;;;8.50;6.22;;;8.20;74.80;;;;;;5027811;28;20040;-58
2021/05/08 06:26:37;;;;;;;7.53;6.80;;;8.30;73.20;;;;;;5025721;28;20069;-60
2021/05/08 06:29:04;;;;;;;9.93;6.88;;;8.30;73.50;;;;;;5023670;28;20042;-60
2021/05/08 06:31:30;;;;;;;8.88;6.63;;;8.30;73.40;;;;;;5028032;28;20030;-60
2021/05/08 06:33:56;;;;;;;7.78;6.53;;;8.00;74.20;;;;;;5021525;28;20081;-57
2021/05/08 06:36:22;;;;;;;8.95;6.97;;;8.30;73.80;;;;;;5029826;28;20113;-60
2021/05/08 06:38:48;;;;;;;8.02;6.80;;;8.50;73.50;;;;;;5021477;28;20091;-58
2021/05/08 06:41:15;;;;;;;7.57;6.63;;;8.50;73.00;;;;;;5031286;28;20033;-61
2021/05/08 06:43:40;;;;;;;7.93;7.13;;;8.70;73.30;;;;;;5029296;28;20409;-61
2021/05/08 06:46:09;;;;;;;8.40;6.90;;;8.70;73.10;;;;;;5032266;28;20087;-62
2021/05/08 06:48:35;;;;;;;8.25;6.85;;;8.90;72.50;;;;;;5015098;28;20030;-61
2021/05/08 06:51:05;;;;;;;10.93;7.50;;;9.00;72.40;;;;;;5032630;28;20084;-61
2021/05/08 06:53:31;;;;;;;8.73;6.93;;;9.10;72.00;;;;;;5030421;28;20237;-58
2021/05/08 06:55:56;;;;;;;7.93;7.13;;;9.20;71.60;;;;;;5029833;28;20116;-62
2021/05/08 06:58:22;;;;;;;7.95;7.05;;;9.10;72.60;;;;;;5031783;28;20080;-61
2021/05/08 07:00:48;;;;;;;8.95;7.13;;;9.10;73.10;;;;;;5033133;28;20489;-61
2021/05/08 07:03:14;;;;;;;7.82;7.03;;;9.20;72.90;;;;;;5032706;28;20084;-59
2021/05/08 07:05:39;;;;;;;7.93;7.10;;;9.20;72.70;;;;;;5031265;28;20047;-62
2021/05/08 07:08:08;;;;;;;7.68;6.88;;;9.20;72.20;;;;;;5034913;28;20038;-64
2021/05/08 07:10:41;;;;;;;8.48;7.63;;;9.10;72.00;;;;;;5032371;28;20707;-63
2021/05/08 07:13:07;;;;;;;10.43;7.78;;;9.40;72.20;;;;;;5031795;28;20032;-63
2021/05/08 07:15:32;;;;;;;7.88;6.85;;;9.40;71.70;;;;;;5036026;28;20041;-63
2021/05/08 07:18:03;;;;;;;9.68;7.00;;;9.30;71.80;;;;;;5033550;28;20064;-64
2021/05/08 07:20:29;;;;;;;7.70;6.43;;;9.40;71.30;;;;;;5032598;28;20033;-64
2021/05/08 07:22:55;;;;;;;7.60;6.68;;;9.50;71.20;;;;;;5046112;28;20037;-63
2021/05/08 07:25:21;;;;;;;7.55;6.63;;;9.60;71.50;;;;;;5032353;28;20037;-62
2021/05/08 07:27:46;;;;;;;8.02;6.80;;;9.80;70.60;;;;;;5036088;28;20041;-63
2021/05/08 07:30:12;;;;;;;11.45;7.15;;;9.90;70.90;;;;;;5038203;28;20038;-62
2021/05/08 07:32:38;;;;;;;20.05;7.40;;;9.80;71.60;;;;;;5033437;28;20393;-62
2021/05/08 07:35:06;;;;;;;14.82;7.75;;;10.00;70.20;;;;;;5020429;28;20108;-64
2021/05/08 07:37:32;;;;;;;9.88;7.70;;;10.20;69.70;;;;;;5036528;28;20052;-62
2021/05/08 07:40:04;;;;;;;13.85;7.97;;;10.20;70.20;;;;;;5033076;28;20065;-62
2021/05/08 07:42:39;;;;;;;12.52;6.30;;;10.30;70.20;;;;;;5018570;28;20037;-62
2021/05/08 07:45:05;;;;;;;7.63;6.80;;;10.60;67.70;;;;;;5031381;28;20022;-63
2021/05/08 07:47:30;;;;;;;8.77;7.00;;;10.40;67.70;;;;;;5026063;28;20049;-64
2021/05/08 07:49:56;;;;;;;7.88;7.07;;;10.30;67.80;;;;;;5009841;28;20022;-63
2021/05/08 07:52:22;;;;;;;7.72;6.70;;;10.20;66.90;;;;;;5010211;28;20046;-63
2021/05/08 07:54:47;;;;;;;9.75;6.70;;;10.50;66.40;;;;;;5011555;28;20034;-62
2021/05/08 07:57:13;;;;;;;8.27;6.70;;;10.50;66.60;;;;;;5027056;28;20061;-62
2021/05/08 07:59:38;;;;;;;8.73;6.97;;;10.50;66.60;;;;;;5018523;28;20030;-63
2021/05/08 08:02:04;;;;;;;9.32;6.70;;;10.60;65.70;;;;;;5034584;28;20052;-64
2021/05/08 08:04:30;;;;;;;7.65;6.78;;;10.70;66.10;;;;;;5042553;28;20076;-61
2021/05/08 08:06:56;;;;;;;8.40;6.80;;;10.60;66.80;;;;;;5034257;28;20056;-61
2021/05/08 08:09:21;;;;;;;9.85;6.90;;;10.60;65.80;;;;;;5022971;28;20030;-62
2021/05/08 08:11:47;;;;;;;9.90;7.38;;;10.70;65.00;;;;;;5026938;28;20041;-62
2021/05/08 08:14:13;;;;;;;7.50;6.45;;;10.70;65.60;;;;;;5050162;28;20037;-63
2021/05/08 08:16:38;;;;;;;8.48;6.55;;;10.70;65.60;;;;;;5024457;28;20034;-61
2021/05/08 08:19:04;;;;;;;9.32;6.90;;;10.80;66.40;;;;;;5035718;28;20113;-63
2021/05/08 08:21:30;;;;;;;9.45;6.95;;;10.90;66.00;;;;;;5012591;28;20034;-61
2021/05/08 08:23:56;;;;;;;8.25;7.05;;;11.20;65.60;;;;;;5032578;28;20045;-61
2021/05/08 08:26:22;;;;;;;9.10;7.43;;;11.40;64.80;;;;;;5034157;28;20430;-62
2021/05/08 08:28:48;;;;;;;11.02;7.40;;;11.50;65.20;;;;;;5037511;28;20477;-61
2021/05/08 08:31:13;;;;;;;8.43;6.82;;;11.30;63.80;;;;;;5032769;28;20088;-63
2021/05/08 08:33:39;;;;;;;10.07;8.02;;;11.30;64.70;;;;;;5014470;28;20046;-61
2021/05/08 08:36:05;;;;;;;10.27;7.53;;;11.30;64.40;;;;;;5021520;28;20551;-63
2021/05/08 08:38:30;;;;;;;8.80;7.22;;;11.30;65.20;;;;;;5022079;28;20034;-62
2021/05/08 08:40:56;;;;;;;8.23;7.40;;;11.30;65.00;;;;;;5042965;28;20036;-62
2021/05/08 08:43:23;;;;;;;11.05;7.97;;;11.50;65.50;;;;;;5019019;28;20474;-62
2021/05/08 08:45:49;;;;;;;11.05;7.43;;;11.40;65.10;;;;;;5051389;28;20044;-63
2021/05/08 08:48:14;;;;;;;9.13;7.40;;;11.70;64.50;;;;;;5032159;28;20443;-61
2021/05/08 08:50:41;;;;;;;9.18;7.57;;;11.80;64.60;;;;;;5015855;28;20101;-62
2021/05/08 08:53:13;;;;;;;10.07;8.05;;;11.90;63.20;;;;;;5046918;28;20037;-64
2021/05/08 08:55:42;;;;;;;12.93;7.53;;;12.00;63.30;;;;;;5048657;28;20088;-62
2021/05/08 08:58:08;;;;;;;10.52;8.07;;;12.20;63.60;;;;;;5023506;28;20036;-62
2021/05/08 09:00:34;;;;;;;11.00;8.68;;;12.20;61.90;;;;;;5022887;28;20360;-64
2021/05/08 09:03:02;;;;;;;12.73;8.55;;;12.10;62.10;;;;;;5016422;28;20108;-61
2021/05/08 09:05:31;;;;;;;9.82;7.82;;;12.30;62.30;;;;;;5027598;28;20029;-62
2021/05/08 09:08:00;;;;;;;11.38;8.68;;;12.40;60.90;;;;;;5016102;28;20076;-62
2021/05/08 09:10:28;;;;;;;13.40;9.25;;;12.50;59.60;;;;;;5031155;28;20073;-62
2021/05/08 09:12:55;;;;;;;10.95;8.80;;;12.50;57.80;;;;;;5034302;28;20489;-62
2021/05/08 09:15:36;;;;;;;13.80;8.82;;;12.60;58.50;;;;;;5025553;28;20026;-62
2021/05/08 09:18:03;;;;;;;11.10;9.00;;;12.60;59.30;;;;;;5016160;28;20026;-60
2021/05/08 09:20:45;;;;;;;9.45;8.55;;;12.60;58.80;;;;;;5032830;28;20041;-61
2021/05/08 09:23:29;;;;;;;9.85;8.55;;;12.50;53.70;;;;;;5016375;28;20052;-63
2021/05/08 09:26:14;;;;;;;12.32;8.02;;;12.50;55.70;;;;;;5024923;28;20060;-62
2021/05/08 09:28:50;;;;;;;9.27;7.97;;;12.60;55.00;;;;;;5019792;28;20057;-62
2021/05/08 09:31:17;;;;;;;11.98;7.97;;;12.90;53.50;;;;;;5030411;28;20041;-64
2021/05/08 09:33:51;;;;;;;9.20;6.72;;;12.80;52.00;;;;;;5026599;28;20045;-61
2021/05/08 09:36:17;;;;;;;9.95;7.50;;;13.00;51.90;;;;;;5034016;28;20061;-62
2021/05/08 09:38:44;;;;;;;8.73;7.47;;;13.00;52.10;;;;;;5018398;28;20434;-63
2021/05/08 09:41:12;;;;;;;9.35;7.13;;;12.80;51.20;;;;;;5034888;28;20112;-63
2021/05/08 09:43:38;;;;;;;8.95;5.88;;;12.90;52.60;;;;;;5048318;28;20128;-61
2021/05/08 09:46:08;;;;;;;8.30;5.70;;;13.00;47.60;;;;;;5037066;28;20045;-62
2021/05/08 09:48:38;;;;;;;6.57;5.03;;;12.80;47.30;;;;;;5027967;28;20044;-61
2021/05/08 09:51:29;;;;;;;7.13;5.40;;;12.80;46.60;;;;;;5019724;28;20032;-61
2021/05/08 09:54:10;;;;;;;7.18;6.38;;;12.80;46.70;;;;;;5019160;28;20034;-62
2021/05/08 09:56:41;;;;;;;6.90;6.18;;;12.70;46.90;;;;;;5044772;28;20496;-62
2021/05/08 09:59:24;;;;;;;12.15;9.07;;;12.80;47.60;;;;;;5028638;28;20044;-62
2021/05/08 10:02:02;;;;;;;7.38;6.35;;;13.10;49.00;;;;;;5039699;28;20033;-61
2021/05/08 10:04:43;;;;;;;7.78;6.47;;;13.30;50.00;;;;;;5025571;28;20057;-60
2021/05/08 10:07:16;;;;;;;6.85;5.80;;;13.40;50.10;;;;;;5036686;28;20041;-59
2021/05/08 10:09:43;;;;;;;7.60;6.60;;;13.70;49.40;;;;;;5029995;28;20038;-61
2021/05/08 10:12:14;;;;;;;6.82;6.18;;;13.60;48.40;;;;;;5013637;28;20099;-61
2021/05/08 10:14:42;;;;;;;7.60;6.30;;;13.60;49.20;;;;;;5045248;28;20026;-62
2021/05/08 10:17:10;;;;;;;7.00;6.30;;;13.50;48.00;;;;;;5048869;28;20091;-62
2021/05/08 10:19:37;;;;;;;12.57;6.75;;;13.90;49.10;;;;;;5024286;28;20030;-64
2021/05/08 10:22:10;;;;;;;7.70;6.03;;;13.90;47.70;;;;;;5015295;28;20029;-63
2021/05/08 10:24:36;;;;;;;7.50;6.00;;;13.80;49.10;;;;;;5016050;28;20026;-62
2021/05/08 10:27:02;;;;;;;6.15;5.55;;;13.90;47.60;;;;;;5031239;28;20442;-61
2021/05/08 10:29:30;;;;;;;7.18;6.38;;;14.20;46.90;;;;;;5031694;28;20069;-62
2021/05/08 10:32:00;;;;;;;6.95;5.80;;;14.10;45.70;;;;;;5027146;28;20053;-62
2021/05/08 10:34:36;;;;;;;8.38;5.88;;;13.90;46.30;;;;;;5023877;28;20026;-61
2021/05/08 10:37:09;;;;;;;8.10;6.15;;;13.50;46.60;;;;;;5013702;28;20030;-62
2021/05/08 10:39:51;;;;;;;6.95;5.60;;;13.70;46.90;;;;;;5012116;28;20030;-62
2021/05/08 10:42:31;;;;;;;6.43;5.55;;;14.00;46.80;;;;;;5016116;28;20034;-63
2021/05/08 10:44:58;;;;;;;6.47;5.53;;;14.20;44.80;;;;;;5030060;28;20094;-63
2021/05/08 10:47:24;;;;;;;6.68;5.47;;;14.00;44.20;;;;;;5049904;28;20545;-60
2021/05/08 10:50:27;;;;;;;7.28;5.47;;;13.90;44.00;;;;;;5033852;28;20042;-61
2021/05/08 10:52:58;;;;;;;7.55;5.40;;;14.00;44.70;;;;;;5023707;28;20032;-62
2021/05/08 10:55:24;;;;;;;7.65;5.38;;;14.20;42.60;;;;;;5031001;28;20063;-61
2021/05/08 10:58:15;;;;;;;6.85;4.97;;;14.10;42.90;;;;;;5031779;28;20095;-61
2021/05/08 11:00:51;;;;;;;6.53;4.90;;;13.90;44.70;;;;;;5023665;28;20029;-61
2021/05/08 11:03:24;;;;;;;7.60;5.80;;;13.90;45.70;;;;;;5027795;28;20029;-63
2021/05/08 11:06:00;;;;;;;8.60;6.15;;;14.10;44.60;;;;;;5021870;28;20154;-62
2021/05/08 11:08:25;;;;;;;8.13;5.00;;;14.50;44.70;;;;;;5029602;28;20040;-61
2021/05/08 11:11:08;;;;;;;7.15;5.22;;;14.70;43.30;;;;;;5022614;28;20026;-62
2021/05/08 11:13:43;;;;;;;5.68;5.00;;;14.70;43.40;;;;;;5034322;28;20045;-63
2021/05/08 11:16:09;;;;;;;5.00;4.47;;;14.70;43.60;;;;;;5019064;28;20125;-63
2021/05/08 11:18:44;;;;;;;6.07;4.97;;;14.60;41.50;;;;;;5030981;28;20131;-62
2021/05/08 11:21:15;;;;;;;6.35;4.53;;;14.60;41.00;;;;;;5041487;28;20044;-62
2021/05/08 11:23:52;;;;;;;5.78;4.93;;;14.50;41.70;;;;;;5016797;28;20041;-62
2021/05/08 11:26:28;;;;;;;5.30;4.68;;;14.60;41.70;;;;;;5026044;28;20053;-62
2021/05/08 11:29:03;;;;;;;6.35;4.50;;;14.50;41.80;;;;;;5020280;28;20030;-63
2021/05/08 11:31:39;;;;;;;5.80;5.05;;;14.70;42.30;;;;;;5025544;28;20037;-64
2021/05/08 11:34:15;;;;;;;10.13;6.90;;;14.80;41.90;;;;;;5022940;28;20033;-62
2021/05/08 11:36:51;;;;;;;4.80;4.30;;;14.70;41.90;;;;;;5023052;28;20117;-60
2021/05/08 11:39:18;;;;;;;5.10;4.20;;;14.60;42.00;;;;;;5025418;28;20778;-61
2021/05/08 11:41:45;;;;;;;6.28;4.28;;;14.50;39.90;;;;;;5021093;28;20029;-61
2021/05/08 11:44:35;;;;;;;6.13;4.03;;;14.50;41.30;;;;;;5036094;28;20136;-62
2021/05/08 11:50:03;;;;;;;7.40;3.90;;;15.20;41.80;;;;;;5035068;28;20041;-64
2021/05/08 11:52:47;;;;;;;5.10;4.50;;;15.50;42.10;;;;;;5032331;28;20084;-61
2021/05/08 11:55:13;;;;;;;6.13;4.03;;;15.40;40.80;;;;;;5018452;28;20394;-62
2021/05/08 11:57:42;;;;;;;4.05;3.58;;;15.50;41.60;;;;;;5015541;28;20024;-60
2021/05/08 12:00:15;;;;;;;6.03;4.07;;;15.80;41.40;;;;;;5013628;28;20367;-64
2021/05/08 12:02:41;;;;;;;5.20;4.70;;;15.60;42.00;;;;;;5015159;28;20022;-61
2021/05/08 12:05:07;;;;;;;6.85;4.63;;;15.60;40.50;;;;;;5013882;28;20505;-63
2021/05/08 12:07:39;;;;;;;5.00;4.45;;;15.40;41.00;;;;;;5015449;28;20034;-64
2021/05/08 12:10:12;;;;;;;4.30;3.90;;;15.40;40.60;;;;;;5013656;28;20485;-62
2021/05/08 12:12:54;;;;;;;5.63;4.35;;;15.20;41.30;;;;;;5019008;28;20056;-61
2021/05/08 12:15:21;;;;;;;4.85;4.00;;;15.10;41.60;;;;;;5022972;28;20026;-61
2021/05/08 12:17:48;;;;;;;5.85;4.35;;;15.30;42.20;;;;;;5017698;28;20063;-62
2021/05/08 12:20:17;;;;;;;4.80;4.30;;;15.10;40.90;;;;;;5014514;28;20034;-61
2021/05/08 12:22:43;;;;;;;6.68;4.40;;;15.20;42.30;;;;;;5022501;28;20026;-60
2021/05/08 12:25:20;;;;;;;5.90;4.57;;;15.20;41.40;;;;;;5045295;28;20431;-60
2021/05/08 12:27:46;;;;;;;5.57;4.75;;;15.10;41.60;;;;;;5038693;28;20045;-63
2021/05/08 12:30:13;;;;;;;5.25;4.53;;;15.00;41.60;;;;;;5020809;28;20033;-65
2021/05/08 12:32:50;;;;;;;5.82;4.57;;;15.00;41.70;;;;;;5035534;28;20052;-62
2021/05/08 12:35:16;;;;;;;4.90;4.00;;;15.10;42.30;;;;;;5020092;28;20029;-63
2021/05/08 12:37:42;;;;;;;4.95;4.05;;;15.30;42.30;;;;;;5039810;28;20029;-63
2021/05/08 12:40:09;;;;;;;5.63;4.65;;;15.50;41.90;;;;;;5035527;28;20041;-62
2021/05/08 12:42:45;;;;;;;5.55;4.00;;;15.40;41.10;;;;;;5032441;28;20065;-61
2021/05/08 12:45:12;;;;;;;4.22;3.70;;;15.40;41.50;;;;;;5018078;28;20038;-62
2021/05/08 12:47:47;;;;;;;3.78;3.38;;;15.60;42.30;;;;;;5024557;28;20037;-64
2021/05/08 12:50:16;;;;;;;4.65;4.00;;;15.60;42.60;;;;;;5015870;28;20068;-62
2021/05/08 12:52:58;;;;;;;4.03;3.55;;;15.20;43.40;;;;;;5033676;28;20096;-62
2021/05/08 12:55:28;;;;;;;4.18;3.63;;;15.50;42.70;;;;;;5048614;28;20034;-62
2021/05/08 12:58:04;;;;;;;5.93;3.75;;;15.70;42.60;;;;;;5031481;28;20486;-62